Terminal Aerodrome Forecast
Issued by NWS

Home | Current Version | Previous Version | Text Only | Print | Product List | Glossary On
Versions: 1 2 3 4 5 6 7 8 9 10 11 12 13 14 15 16 17 18
000
FTUS44 KEPZ 040544
TAFDMN
TAF
KDMN 040544Z 0406/0506 09011KT P6SM -TSRA BKN070CB OVC150
     FM040800 09011KT P6SM SCT070 BKN250
     FM041500 12010KT P6SM FEW070 SCT250
     FM042000 20010G18KT P6SM VCTS SCT080CB BKN160 BKN250=

USA.gov is the U.S. government's official web portal to all federal, state and local government web resources and services.